sensor_id;sensor_type;location;lat;lon;timestamp;P1;durP1;ratioP1;P2;durP2;ratioP2
74788;SDS011;63313;48.258;12.518;2022-10-31T00:01:49;9.74;;;4.94;;
74788;SDS011;63313;48.258;12.518;2022-10-31T00:07:16;19.29;;;7.5200000000000005;;
74788;SDS011;63313;48.258;12.518;2022-10-31T00:12:43;14.6;;;5.05;;
74788;SDS011;63313;48.258;12.518;2022-10-31T00:18:10;27.53;;;9.48;;
74788;SDS011;63313;48.258;12.518;2022-10-31T00:23:37;26.860000000000003;;;9.51;;
74788;SDS011;63313;48.258;12.518;2022-10-31T00:29:05;35.019999999999996;;;9.95;;
74788;SDS011;63313;48.258;12.518;2022-10-31T00:34:32;8.89;;;5.249999999999999;;
74788;SDS011;63313;48.258;12.518;2022-10-31T00:39:59;12.36;;;4.680000000000001;;
74788;SDS011;63313;48.258;12.518;2022-10-31T00:45:26;15.889999999999997;;;7.409999999999999;;
74788;SDS011;63313;48.258;12.518;2022-10-31T00:50:53;18.54;;;7.950000000000001;;
74788;SDS011;63313;48.258;12.518;2022-10-31T00:56:20;12.059999999999999;;;4.970000000000001;;
74788;SDS011;63313;48.258;12.518;2022-10-31T01:01:47;10.479999999999999;;;5.31;;
74788;SDS011;63313;48.258;12.518;2022-10-31T01:07:15;8.629999999999999;;;4.41;;
74788;SDS011;63313;48.258;12.518;2022-10-31T01:12:43;12.709999999999999;;;5.3;;
74788;SDS011;63313;48.258;12.518;2022-10-31T01:18:10;16.4;;;5.14;;
74788;SDS011;63313;48.258;12.518;2022-10-31T01:23:37;11.13;;;4.749999999999999;;
74788;SDS011;63313;48.258;12.518;2022-10-31T01:29:06;12.629999999999999;;;4.5600000000000005;;
74788;SDS011;63313;48.258;12.518;2022-10-31T01:34:33;16.200000000000003;;;5.4;;
74788;SDS011;63313;48.258;12.518;2022-10-31T01:40:00;19.169999999999998;;;7.0200000000000005;;
74788;SDS011;63313;48.258;12.518;2022-10-31T01:45:27;11.46;;;5.609999999999999;;
74788;SDS011;63313;48.258;12.518;2022-10-31T01:50:54;11.03;;;5.8100000000000005;;
74788;SDS011;63313;48.258;12.518;2022-10-31T01:56:22;11.66;;;6.199999999999999;;
74788;SDS011;63313;48.258;12.518;2022-10-31T02:01:49;17.09;;;7.24;;
74788;SDS011;63313;48.258;12.518;2022-10-31T02:07:18;16.740000000000002;;;6.789999999999999;;
74788;SDS011;63313;48.258;12.518;2022-10-31T02:12:46;14.5;;;6.8;;
74788;SDS011;63313;48.258;12.518;2022-10-31T02:18:14;14.0;;;4.630000000000001;;
74788;SDS011;63313;48.258;12.518;2022-10-31T02:23:49;8.059999999999999;;;3.8600000000000003;;
74788;SDS011;63313;48.258;12.518;2022-10-31T02:29:29;7.3199999999999985;;;3.7;;
74788;SDS011;63313;48.258;12.518;2022-10-31T02:35:02;7.5600000000000005;;;4.42;;
74788;SDS011;63313;48.258;12.518;2022-10-31T02:40:35;7.4;;;4.590000000000001;;
74788;SDS011;63313;48.258;12.518;2022-10-31T02:46:04;19.020000000000003;;;5.139999999999999;;
74788;SDS011;63313;48.258;12.518;2022-10-31T02:51:35;11.48;;;5.08;;
74788;SDS011;63313;48.258;12.518;2022-10-31T02:57:03;17.1;;;5.8100000000000005;;
74788;SDS011;63313;48.258;12.518;2022-10-31T03:02:34;57.089999999999996;;;7.119999999999999;;
74788;SDS011;63313;48.258;12.518;2022-10-31T03:08:08;55.29;;;7.3100000000000005;;
74788;SDS011;63313;48.258;12.518;2022-10-31T03:13:39;11.9;;;6.26;;
74788;SDS011;63313;48.258;12.518;2022-10-31T03:19:07;14.16;;;6.44;;
74788;SDS011;63313;48.258;12.518;2022-10-31T03:24:36;20.18;;;5.82;;
74788;SDS011;63313;48.258;12.518;2022-10-31T03:30:04;24.55;;;4.72;;
74788;SDS011;63313;48.258;12.518;2022-10-31T03:35:32;44.57000000000001;;;5.959999999999999;;
74788;SDS011;63313;48.258;12.518;2022-10-31T03:41:00;31.07;;;5.14;;
74788;SDS011;63313;48.258;12.518;2022-10-31T03:46:28;30.560000000000002;;;5.2700000000000005;;
74788;SDS011;63313;48.258;12.518;2022-10-31T03:51:57;11.33;;;4.9799999999999995;;
74788;SDS011;63313;48.258;12.518;2022-10-31T03:57:26;16.759999999999998;;;4.869999999999999;;
74788;SDS011;63313;48.258;12.518;2022-10-31T04:02:55;14.030000000000001;;;5.33;;
74788;SDS011;63313;48.258;12.518;2022-10-31T04:08:24;7.029999999999999;;;4.7;;
74788;SDS011;63313;48.258;12.518;2022-10-31T04:13:53;8.26;;;4.2299999999999995;;
74788;SDS011;63313;48.258;12.518;2022-10-31T04:19:20;6.0200000000000005;;;4.24;;
74788;SDS011;63313;48.258;12.518;2022-10-31T04:24:47;12.099999999999998;;;4.37;;
74788;SDS011;63313;48.258;12.518;2022-10-31T04:30:14;5.529999999999999;;;3.7600000000000002;;
74788;SDS011;63313;48.258;12.518;2022-10-31T04:35:41;5.38;;;3.54;;
74788;SDS011;63313;48.258;12.518;2022-10-31T04:41:08;13.729999999999999;;;4.779999999999999;;
74788;SDS011;63313;48.258;12.518;2022-10-31T04:46:35;30.07;;;5.43;;
74788;SDS011;63313;48.258;12.518;2022-10-31T04:52:03;17.95;;;5.220000000000001;;
74788;SDS011;63313;48.258;12.518;2022-10-31T04:57:30;14.999999999999996;;;4.76;;
74788;SDS011;63313;48.258;12.518;2022-10-31T05:02:57;31.419999999999998;;;5.050000000000001;;
74788;SDS011;63313;48.258;12.518;2022-10-31T05:08:24;8.249999999999998;;;4.1899999999999995;;
74788;SDS011;63313;48.258;12.518;2022-10-31T05:13:51;5.930000000000001;;;4.319999999999999;;
74788;SDS011;63313;48.258;12.518;2022-10-31T05:19:18;39.709999999999994;;;5.42;;
74788;SDS011;63313;48.258;12.518;2022-10-31T05:24:45;6.44;;;4.33;;
74788;SDS011;63313;48.258;12.518;2022-10-31T05:30:13;13.61;;;4.34;;
74788;SDS011;63313;48.258;12.518;2022-10-31T05:35:41;38.68;;;4.91;;
74788;SDS011;63313;48.258;12.518;2022-10-31T05:41:08;12.73;;;4.589999999999999;;
74788;SDS011;63313;48.258;12.518;2022-10-31T05:46:35;6.57;;;4.539999999999999;;
74788;SDS011;63313;48.258;12.518;2022-10-31T05:52:02;22.44;;;6.51;;
74788;SDS011;63313;48.258;12.518;2022-10-31T05:57:31;11.720000000000002;;;5.74;;
74788;SDS011;63313;48.258;12.518;2022-10-31T06:02:58;26.910000000000004;;;6.069999999999999;;
74788;SDS011;63313;48.258;12.518;2022-10-31T06:08:26;13.6;;;6.44;;
74788;SDS011;63313;48.258;12.518;2022-10-31T06:13:53;15.14;;;7.18;;
74788;SDS011;63313;48.258;12.518;2022-10-31T06:19:20;16.560000000000002;;;5.41;;
74788;SDS011;63313;48.258;12.518;2022-10-31T06:24:47;6.49;;;4.34;;
74788;SDS011;63313;48.258;12.518;2022-10-31T06:30:14;6.6;;;4.430000000000001;;
74788;SDS011;63313;48.258;12.518;2022-10-31T06:35:44;6.18;;;4.279999999999999;;
74788;SDS011;63313;48.258;12.518;2022-10-31T06:41:11;8.41;;;4.450000000000001;;
74788;SDS011;63313;48.258;12.518;2022-10-31T06:46:38;7.630000000000001;;;4.31;;
74788;SDS011;63313;48.258;12.518;2022-10-31T06:52:05;7.669999999999999;;;4.52;;
74788;SDS011;63313;48.258;12.518;2022-10-31T06:57:32;10.74;;;4.77;;
74788;SDS011;63313;48.258;12.518;2022-10-31T07:03:00;7.639999999999999;;;5.32;;
74788;SDS011;63313;48.258;12.518;2022-10-31T07:08:28;6.58;;;5.24;;
74788;SDS011;63313;48.258;12.518;2022-10-31T07:13:55;12.260000000000002;;;6.87;;
74788;SDS011;63313;48.258;12.518;2022-10-31T07:19:22;15.940000000000001;;;7.080000000000001;;
74788;SDS011;63313;48.258;12.518;2022-10-31T07:24:49;21.999999999999996;;;7.390000000000001;;
74788;SDS011;63313;48.258;12.518;2022-10-31T07:30:17;27.880000000000003;;;9.61;;
74788;SDS011;63313;48.258;12.518;2022-10-31T07:35:44;23.14;;;7.359999999999999;;
74788;SDS011;63313;48.258;12.518;2022-10-31T07:41:11;13.129999999999999;;;6.9799999999999995;;
74788;SDS011;63313;48.258;12.518;2022-10-31T07:46:38;15.080000000000002;;;7.13;;
74788;SDS011;63313;48.258;12.518;2022-10-31T07:52:05;10.620000000000001;;;7.639999999999999;;
74788;SDS011;63313;48.258;12.518;2022-10-31T07:57:32;14.080000000000002;;;8.6;;
74788;SDS011;63313;48.258;12.518;2022-10-31T08:02:59;14.219999999999999;;;7.519999999999999;;
74788;SDS011;63313;48.258;12.518;2022-10-31T08:08:27;12.0;;;7.58;;
74788;SDS011;63313;48.258;12.518;2022-10-31T08:13:54;12.89;;;7.4799999999999995;;
74788;SDS011;63313;48.258;12.518;2022-10-31T08:19:21;21.98;;;9.700000000000001;;
74788;SDS011;63313;48.258;12.518;2022-10-31T08:24:48;14.55;;;7.88;;
74788;SDS011;63313;48.258;12.518;2022-10-31T08:30:15;18.189999999999998;;;8.48;;
74788;SDS011;63313;48.258;12.518;2022-10-31T08:35:42;12.84;;;6.470000000000001;;
74788;SDS011;63313;48.258;12.518;2022-10-31T08:41:09;16.79;;;7.17;;
74788;SDS011;63313;48.258;12.518;2022-10-31T08:46:36;13.05;;;8.16;;
74788;SDS011;63313;48.258;12.518;2022-10-31T08:52:03;13.720000000000002;;;8.27;;
74788;SDS011;63313;48.258;12.518;2022-10-31T08:57:31;15.080000000000002;;;9.2;;
74788;SDS011;63313;48.258;12.518;2022-10-31T09:02:58;20.86;;;10.71;;
74788;SDS011;63313;48.258;12.518;2022-10-31T09:08:26;23.31;;;11.919999999999998;;
74788;SDS011;63313;48.258;12.518;2022-10-31T09:13:53;28.869999999999997;;;17.96;;
74788;SDS011;63313;48.258;12.518;2022-10-31T09:19:20;27.35;;;16.38;;
74788;SDS011;63313;48.258;12.518;2022-10-31T09:24:47;27.370000000000005;;;16.23;;
74788;SDS011;63313;48.258;12.518;2022-10-31T09:30:14;21.55;;;13.229999999999999;;
74788;SDS011;63313;48.258;12.518;2022-10-31T09:35:42;19.55;;;10.530000000000001;;
74788;SDS011;63313;48.258;12.518;2022-10-31T09:41:13;14.060000000000002;;;8.879999999999999;;
74788;SDS011;63313;48.258;12.518;2022-10-31T09:46:44;26.24;;;8.51;;
74788;SDS011;63313;48.258;12.518;2022-10-31T09:52:16;16.24;;;8.180000000000001;;
74788;SDS011;63313;48.258;12.518;2022-10-31T09:57:44;17.5;;;7.63;;
74788;SDS011;63313;48.258;12.518;2022-10-31T10:03:15;8.070000000000002;;;5.290000000000001;;
74788;SDS011;63313;48.258;12.518;2022-10-31T10:08:48;15.11;;;6.470000000000001;;
74788;SDS011;63313;48.258;12.518;2022-10-31T10:14:19;9.959999999999999;;;6.51;;
74788;SDS011;63313;48.258;12.518;2022-10-31T10:19:53;14.439999999999998;;;6.779999999999999;;
74788;SDS011;63313;48.258;12.518;2022-10-31T10:25:24;16.119999999999997;;;6.37;;
74788;SDS011;63313;48.258;12.518;2022-10-31T10:30:54;12.3;;;5.54;;
74788;SDS011;63313;48.258;12.518;2022-10-31T10:36:26;12.34;;;5.4;;
74788;SDS011;63313;48.258;12.518;2022-10-31T10:41:55;16.080000000000002;;;5.6;;
74788;SDS011;63313;48.258;12.518;2022-10-31T10:47:22;12.629999999999999;;;5.26;;
74788;SDS011;63313;48.258;12.518;2022-10-31T10:52:51;10.070000000000002;;;4.42;;
74788;SDS011;63313;48.258;12.518;2022-10-31T10:58:20;10.260000000000002;;;5.19;;
74788;SDS011;63313;48.258;12.518;2022-10-31T11:03:47;11.16;;;4.96;;
74788;SDS011;63313;48.258;12.518;2022-10-31T11:09:14;10.879999999999999;;;5.17;;
74788;SDS011;63313;48.258;12.518;2022-10-31T11:14:44;11.440000000000001;;;5.04;;
74788;SDS011;63313;48.258;12.518;2022-10-31T11:20:22;12.120000000000001;;;5.0;;
74788;SDS011;63313;48.258;12.518;2022-10-31T11:25:51;12.400000000000002;;;4.69;;
74788;SDS011;63313;48.258;12.518;2022-10-31T11:31:19;10.08;;;4.65;;
74788;SDS011;63313;48.258;12.518;2022-10-31T11:36:46;11.72;;;4.61;;
74788;SDS011;63313;48.258;12.518;2022-10-31T11:42:14;19.970000000000002;;;5.05;;
74788;SDS011;63313;48.258;12.518;2022-10-31T11:47:42;12.75;;;4.360000000000001;;
74788;SDS011;63313;48.258;12.518;2022-10-31T11:53:11;10.02;;;4.1;;
74788;SDS011;63313;48.258;12.518;2022-10-31T11:58:40;13.690000000000001;;;4.18;;
74788;SDS011;63313;48.258;12.518;2022-10-31T12:04:07;16.21;;;4.479999999999999;;
74788;SDS011;63313;48.258;12.518;2022-10-31T12:09:35;19.220000000000002;;;5.67;;
74788;SDS011;63313;48.258;12.518;2022-10-31T12:15:15;16.660000000000004;;;5.49;;
74788;SDS011;63313;48.258;12.518;2022-10-31T12:20:54;19.61;;;6.140000000000001;;
74788;SDS011;63313;48.258;12.518;2022-10-31T12:26:24;15.239999999999998;;;5.37;;
74788;SDS011;63313;48.258;12.518;2022-10-31T12:31:56;16.29;;;5.540000000000001;;
74788;SDS011;63313;48.258;12.518;2022-10-31T12:37:32;15.89;;;5.05;;
74788;SDS011;63313;48.258;12.518;2022-10-31T12:43:08;13.920000000000002;;;5.5200000000000005;;
74788;SDS011;63313;48.258;12.518;2022-10-31T12:48:45;15.73;;;5.46;;
74788;SDS011;63313;48.258;12.518;2022-10-31T12:54:22;18.880000000000003;;;7.1899999999999995;;
74788;SDS011;63313;48.258;12.518;2022-10-31T12:59:53;16.79;;;5.41;;
74788;SDS011;63313;48.258;12.518;2022-10-31T13:05:24;30.630000000000003;;;8.309999999999999;;
74788;SDS011;63313;48.258;12.518;2022-10-31T13:10:55;16.4;;;6.29;;
74788;SDS011;63313;48.258;12.518;2022-10-31T13:16:26;20.38;;;5.58;;
74788;SDS011;63313;48.258;12.518;2022-10-31T13:21:57;23.56;;;4.950000000000001;;
74788;SDS011;63313;48.258;12.518;2022-10-31T13:27:27;11.4;;;5.140000000000001;;
74788;SDS011;63313;48.258;12.518;2022-10-31T13:32:58;14.850000000000003;;;5.049999999999999;;
74788;SDS011;63313;48.258;12.518;2022-10-31T13:38:30;16.02;;;4.92;;
74788;SDS011;63313;48.258;12.518;2022-10-31T13:44:01;15.48;;;4.9799999999999995;;
74788;SDS011;63313;48.258;12.518;2022-10-31T13:49:36;22.160000000000004;;;5.7;;
74788;SDS011;63313;48.258;12.518;2022-10-31T13:55:19;16.720000000000002;;;5.22;;
74788;SDS011;63313;48.258;12.518;2022-10-31T14:01:03;15.969999999999999;;;4.9799999999999995;;
74788;SDS011;63313;48.258;12.518;2022-10-31T14:06:36;12.41;;;4.85;;
74788;SDS011;63313;48.258;12.518;2022-10-31T14:12:04;21.69;;;5.540000000000001;;
74788;SDS011;63313;48.258;12.518;2022-10-31T14:17:35;24.14;;;6.609999999999999;;
74788;SDS011;63313;48.258;12.518;2022-10-31T14:23:24;17.55;;;5.51;;
74788;SDS011;63313;48.258;12.518;2022-10-31T14:28:58;17.43;;;5.529999999999999;;
74788;SDS011;63313;48.258;12.518;2022-10-31T14:34:26;25.54;;;8.2;;
74788;SDS011;63313;48.258;12.518;2022-10-31T14:39:58;25.09;;;7.87;;
74788;SDS011;63313;48.258;12.518;2022-10-31T14:45:29;19.52;;;7.35;;
74788;SDS011;63313;48.258;12.518;2022-10-31T14:50:58;24.409999999999997;;;7.2;;
74788;SDS011;63313;48.258;12.518;2022-10-31T14:56:27;24.119999999999997;;;8.31;;
74788;SDS011;63313;48.258;12.518;2022-10-31T15:01:56;22.479999999999997;;;10.010000000000002;;
74788;SDS011;63313;48.258;12.518;2022-10-31T15:07:24;25.23;;;9.05;;
74788;SDS011;63313;48.258;12.518;2022-10-31T15:12:52;20.96;;;7.7299999999999995;;
74788;SDS011;63313;48.258;12.518;2022-10-31T15:18:20;20.7;;;7.540000000000001;;
74788;SDS011;63313;48.258;12.518;2022-10-31T15:23:48;19.83;;;7.82;;
74788;SDS011;63313;48.258;12.518;2022-10-31T15:29:17;16.67;;;8.379999999999999;;
74788;SDS011;63313;48.258;12.518;2022-10-31T15:34:44;27.360000000000003;;;9.14;;
74788;SDS011;63313;48.258;12.518;2022-10-31T15:40:13;21.470000000000002;;;8.57;;
74788;SDS011;63313;48.258;12.518;2022-10-31T15:45:41;25.3;;;9.13;;
74788;SDS011;63313;48.258;12.518;2022-10-31T15:51:09;26.25;;;10.55;;
74788;SDS011;63313;48.258;12.518;2022-10-31T15:56:36;21.21;;;8.21;;
74788;SDS011;63313;48.258;12.518;2022-10-31T16:02:08;26.589999999999996;;;8.85;;
74788;SDS011;63313;48.258;12.518;2022-10-31T16:07:36;17.0;;;9.23;;
74788;SDS011;63313;48.258;12.518;2022-10-31T16:13:03;24.669999999999998;;;9.040000000000001;;
74788;SDS011;63313;48.258;12.518;2022-10-31T16:18:35;22.490000000000002;;;9.720000000000002;;
74788;SDS011;63313;48.258;12.518;2022-10-31T16:24:04;25.85;;;8.600000000000001;;
74788;SDS011;63313;48.258;12.518;2022-10-31T16:29:33;38.510000000000005;;;13.940000000000001;;
74788;SDS011;63313;48.258;12.518;2022-10-31T16:35:23;30.799999999999994;;;12.17;;
74788;SDS011;63313;48.258;12.518;2022-10-31T16:40:51;18.220000000000002;;;9.35;;
74788;SDS011;63313;48.258;12.518;2022-10-31T16:46:20;26.610000000000003;;;9.2;;
74788;SDS011;63313;48.258;12.518;2022-10-31T16:51:48;22.699999999999996;;;8.529999999999998;;
74788;SDS011;63313;48.258;12.518;2022-10-31T16:57:16;22.279999999999998;;;11.129999999999999;;
74788;SDS011;63313;48.258;12.518;2022-10-31T17:02:44;30.55;;;14.01;;
74788;SDS011;63313;48.258;12.518;2022-10-31T17:08:11;34.519999999999996;;;17.729999999999997;;
74788;SDS011;63313;48.258;12.518;2022-10-31T17:13:39;25.82;;;15.49;;
74788;SDS011;63313;48.258;12.518;2022-10-31T17:19:07;29.660000000000004;;;15.75;;
74788;SDS011;63313;48.258;12.518;2022-10-31T17:24:34;30.04;;;16.43;;
74788;SDS011;63313;48.258;12.518;2022-10-31T17:30:01;31.130000000000003;;;17.32;;
74788;SDS011;63313;48.258;12.518;2022-10-31T17:35:28;35.36;;;18.72;;
74788;SDS011;63313;48.258;12.518;2022-10-31T17:40:55;39.77;;;20.830000000000002;;
74788;SDS011;63313;48.258;12.518;2022-10-31T17:46:23;37.59;;;20.84;;
74788;SDS011;63313;48.258;12.518;2022-10-31T17:51:50;31.7;;;16.360000000000003;;
74788;SDS011;63313;48.258;12.518;2022-10-31T17:57:17;29.85;;;15.319999999999999;;
74788;SDS011;63313;48.258;12.518;2022-10-31T18:02:44;37.199999999999996;;;17.11;;
74788;SDS011;63313;48.258;12.518;2022-10-31T18:08:11;26.0;;;15.229999999999999;;
74788;SDS011;63313;48.258;12.518;2022-10-31T18:13:39;33.21;;;17.1;;
74788;SDS011;63313;48.258;12.518;2022-10-31T18:19:06;32.489999999999995;;;18.3;;
74788;SDS011;63313;48.258;12.518;2022-10-31T18:24:33;55.85;;;26.23;;
74788;SDS011;63313;48.258;12.518;2022-10-31T18:30:00;51.13;;;24.6;;
74788;SDS011;63313;48.258;12.518;2022-10-31T18:35:27;42.94;;;23.949999999999996;;
74788;SDS011;63313;48.258;12.518;2022-10-31T18:40:54;29.48;;;18.69;;
74788;SDS011;63313;48.258;12.518;2022-10-31T18:46:21;42.75000000000001;;;21.880000000000003;;
74788;SDS011;63313;48.258;12.518;2022-10-31T18:51:48;52.160000000000004;;;29.27;;
74788;SDS011;63313;48.258;12.518;2022-10-31T18:57:16;43.14;;;21.089999999999996;;
74788;SDS011;63313;48.258;12.518;2022-10-31T19:02:43;46.86;;;22.860000000000003;;
74788;SDS011;63313;48.258;12.518;2022-10-31T19:08:10;38.41;;;20.549999999999997;;
74788;SDS011;63313;48.258;12.518;2022-10-31T19:13:37;40.269999999999996;;;21.619999999999997;;
74788;SDS011;63313;48.258;12.518;2022-10-31T19:19:04;35.120000000000005;;;19.57;;
74788;SDS011;63313;48.258;12.518;2022-10-31T19:24:31;450.08000000000004;;;117.43999999999998;;
74788;SDS011;63313;48.258;12.518;2022-10-31T19:29:59;316.67999999999995;;;83.32000000000001;;
74788;SDS011;63313;48.258;12.518;2022-10-31T19:35:26;85.81;;;26.630000000000003;;
74788;SDS011;63313;48.258;12.518;2022-10-31T19:40:56;67.06000000000002;;;22.92;;
74788;SDS011;63313;48.258;12.518;2022-10-31T19:46:23;108.55;;;30.919999999999998;;
74788;SDS011;63313;48.258;12.518;2022-10-31T19:51:50;167.88000000000002;;;30.74;;
74788;SDS011;63313;48.258;12.518;2022-10-31T19:57:17;64.22;;;23.35;;
74788;SDS011;63313;48.258;12.518;2022-10-31T20:02:44;71.99999999999999;;;24.759999999999998;;
74788;SDS011;63313;48.258;12.518;2022-10-31T20:08:12;219.31;;;74.8;;
74788;SDS011;63313;48.258;12.518;2022-10-31T20:13:40;316.05;;;98.11999999999998;;
74788;SDS011;63313;48.258;12.518;2022-10-31T20:19:07;141.36;;;40.49;;
74788;SDS011;63313;48.258;12.518;2022-10-31T20:24:34;64.51;;;23.869999999999997;;
74788;SDS011;63313;48.258;12.518;2022-10-31T20:30:01;39.370000000000005;;;15.430000000000001;;
74788;SDS011;63313;48.258;12.518;2022-10-31T20:35:29;47.44;;;19.55;;
74788;SDS011;63313;48.258;12.518;2022-10-31T20:40:58;23.169999999999998;;;11.129999999999999;;
74788;SDS011;63313;48.258;12.518;2022-10-31T20:46:25;8.94;;;6.970000000000001;;
74788;SDS011;63313;48.258;12.518;2022-10-31T20:51:52;9.809999999999999;;;7.2;;
74788;SDS011;63313;48.258;12.518;2022-10-31T20:57:19;16.93;;;8.080000000000002;;
74788;SDS011;63313;48.258;12.518;2022-10-31T21:02:47;12.99;;;7.840000000000001;;
74788;SDS011;63313;48.258;12.518;2022-10-31T21:08:14;15.34;;;6.58;;
74788;SDS011;63313;48.258;12.518;2022-10-31T21:13:41;10.95;;;6.85;;
74788;SDS011;63313;48.258;12.518;2022-10-31T21:19:09;12.18;;;7.340000000000001;;
74788;SDS011;63313;48.258;12.518;2022-10-31T21:24:36;16.68;;;8.690000000000001;;
74788;SDS011;63313;48.258;12.518;2022-10-31T21:30:03;21.79;;;8.75;;
74788;SDS011;63313;48.258;12.518;2022-10-31T21:35:30;17.18;;;9.250000000000002;;
74788;SDS011;63313;48.258;12.518;2022-10-31T21:40:58;36.88;;;11.710000000000003;;
74788;SDS011;63313;48.258;12.518;2022-10-31T21:46:26;33.13;;;10.53;;
74788;SDS011;63313;48.258;12.518;2022-10-31T21:51:53;31.729999999999997;;;13.169999999999998;;
74788;SDS011;63313;48.258;12.518;2022-10-31T21:57:20;69.08;;;20.349999999999998;;
74788;SDS011;63313;48.258;12.518;2022-10-31T22:02:47;65.28;;;20.14;;
74788;SDS011;63313;48.258;12.518;2022-10-31T22:08:14;236.97000000000003;;;109.35999999999999;;
74788;SDS011;63313;48.258;12.518;2022-10-31T22:13:42;69.96000000000001;;;27.65;;
74788;SDS011;63313;48.258;12.518;2022-10-31T22:19:09;79.57;;;27.880000000000003;;
74788;SDS011;63313;48.258;12.518;2022-10-31T22:24:37;36.31;;;16.689999999999998;;
74788;SDS011;63313;48.258;12.518;2022-10-31T22:30:04;55.80999999999999;;;15.720000000000002;;
74788;SDS011;63313;48.258;12.518;2022-10-31T22:35:32;42.58;;;14.1;;
74788;SDS011;63313;48.258;12.518;2022-10-31T22:40:59;171.42000000000002;;;26.04;;
74788;SDS011;63313;48.258;12.518;2022-10-31T22:46:27;264.83;;;18.98;;
74788;SDS011;63313;48.258;12.518;2022-10-31T22:51:55;185.57999999999998;;;16.52;;
74788;SDS011;63313;48.258;12.518;2022-10-31T22:57:22;125.52000000000001;;;16.75;;
74788;SDS011;63313;48.258;12.518;2022-10-31T23:02:49;28.85;;;12.72;;
74788;SDS011;63313;48.258;12.518;2022-10-31T23:08:16;112.2;;;23.23;;
74788;SDS011;63313;48.258;12.518;2022-10-31T23:13:44;123.65;;;21.089999999999996;;
74788;SDS011;63313;48.258;12.518;2022-10-31T23:19:11;92.62;;;17.54;;
74788;SDS011;63313;48.258;12.518;2022-10-31T23:24:39;31.869999999999997;;;12.530000000000001;;
74788;SDS011;63313;48.258;12.518;2022-10-31T23:30:07;29.560000000000002;;;12.59;;
74788;SDS011;63313;48.258;12.518;2022-10-31T23:35:34;49.85;;;14.220000000000002;;
74788;SDS011;63313;48.258;12.518;2022-10-31T23:41:01;46.160000000000004;;;15.89;;
74788;SDS011;63313;48.258;12.518;2022-10-31T23:46:28;133.20999999999998;;;34.279999999999994;;
74788;SDS011;63313;48.258;12.518;2022-10-31T23:51:55;136.07;;;23.32;;
74788;SDS011;63313;48.258;12.518;2022-10-31T23:57:22;81.37;;;16.130000000000003;;
